Chestnutburg, Kentucky
Current Conditions -  °F | °C
As of 11:53 AM on Thursday 27 Nov 2014 (Local Time) from KLOZ Reporting Station
Overcast Overcast  
Wind Chill: 25°   Ceiling: 1200
Heat Index: 33°   Visibility: 9mi
Dew Point: 27°   Wind: 9mph
Humidity: 78%   Direction: 320°NW
Pressure: 30.28"   Gusts: 18mph
Location:  37.1101°N, 83.7537°W
Report Text: KLOZ 271653Z AUTO 32008G16KT 9SM OVC012 01/M03 A3028 RMK AO2 SLP260 T00061028
Loading
Personal Weather Stations






























Interactive Weather Map New forecast layout! Learn more

10-Day Weather Forecast

Advertisements
Track Severe Weather on mobile